sensor_id;sensor_type;location;lat;lon;timestamp;temperature;humidity
19138;DHT22;68178;52.188;5.598;2023-05-16T00:00:08;10.70;99.90
19138;DHT22;68178;52.188;5.598;2023-05-16T00:02:35;10.50;99.90
19138;DHT22;68178;52.188;5.598;2023-05-16T00:05:02;10.50;99.90
19138;DHT22;68178;52.188;5.598;2023-05-16T00:07:29;10.40;99.90
19138;DHT22;68178;52.188;5.598;2023-05-16T00:09:55;10.40;99.90
19138;DHT22;68178;52.188;5.598;2023-05-16T00:12:21;10.30;99.90
19138;DHT22;68178;52.188;5.598;2023-05-16T00:14:47;10.40;99.90
19138;DHT22;68178;52.188;5.598;2023-05-16T00:17:13;10.50;99.90
19138;DHT22;68178;52.188;5.598;2023-05-16T00:19:39;10.40;99.90
19138;DHT22;68178;52.188;5.598;2023-05-16T00:22:06;10.70;99.90
19138;DHT22;68178;52.188;5.598;2023-05-16T00:24:33;10.30;99.90
19138;DHT22;68178;52.188;5.598;2023-05-16T00:26:58;10.30;99.90
19138;DHT22;68178;52.188;5.598;2023-05-16T00:29:24;10.10;99.90
19138;DHT22;68178;52.188;5.598;2023-05-16T00:31:49;10.20;99.90
19138;DHT22;68178;52.188;5.598;2023-05-16T00:34:15;10.10;99.90
19138;DHT22;68178;52.188;5.598;2023-05-16T00:36:40;10.00;99.90
19138;DHT22;68178;52.188;5.598;2023-05-16T00:39:06;10.00;99.90
19138;DHT22;68178;52.188;5.598;2023-05-16T00:41:33;9.90;99.90
19138;DHT22;68178;52.188;5.598;2023-05-16T00:43:58;9.90;99.90
19138;DHT22;68178;52.188;5.598;2023-05-16T00:46:24;10.00;99.90
19138;DHT22;68178;52.188;5.598;2023-05-16T00:48:50;9.90;99.90
19138;DHT22;68178;52.188;5.598;2023-05-16T00:51:16;9.90;99.90
19138;DHT22;68178;52.188;5.598;2023-05-16T00:53:42;9.90;99.90
19138;DHT22;68178;52.188;5.598;2023-05-16T00:56:08;9.80;99.90
19138;DHT22;68178;52.188;5.598;2023-05-16T00:58:34;9.70;99.90
19138;DHT22;68178;52.188;5.598;2023-05-16T01:01:01;9.80;99.90
19138;DHT22;68178;52.188;5.598;2023-05-16T01:03:28;9.70;99.90
19138;DHT22;68178;52.188;5.598;2023-05-16T01:05:54;9.70;99.90
19138;DHT22;68178;52.188;5.598;2023-05-16T01:16:33;9.40;99.90
19138;DHT22;68178;52.188;5.598;2023-05-16T01:22:10;9.40;99.90
19138;DHT22;68178;52.188;5.598;2023-05-16T01:24:55;9.30;99.90
19138;DHT22;68178;52.188;5.598;2023-05-16T01:27:24;9.30;99.90
19138;DHT22;68178;52.188;5.598;2023-05-16T01:29:55;9.30;99.90
19138;DHT22;68178;52.188;5.598;2023-05-16T01:32:21;9.20;99.90
19138;DHT22;68178;52.188;5.598;2023-05-16T01:34:48;9.20;99.90
19138;DHT22;68178;52.188;5.598;2023-05-16T01:37:20;9.20;99.90
19138;DHT22;68178;52.188;5.598;2023-05-16T01:39:56;9.30;99.90
19138;DHT22;68178;52.188;5.598;2023-05-16T01:42:23;9.30;99.90
19138;DHT22;68178;52.188;5.598;2023-05-16T01:45:22;9.30;99.90
19138;DHT22;68178;52.188;5.598;2023-05-16T01:47:54;9.40;99.90
19138;DHT22;68178;52.188;5.598;2023-05-16T01:50:24;9.30;99.90
19138;DHT22;68178;52.188;5.598;2023-05-16T01:52:58;9.50;99.90
19138;DHT22;68178;52.188;5.598;2023-05-16T01:55:46;9.50;99.90
19138;DHT22;68178;52.188;5.598;2023-05-16T01:58:14;9.50;99.90
19138;DHT22;68178;52.188;5.598;2023-05-16T02:00:40;9.40;99.90
19138;DHT22;68178;52.188;5.598;2023-05-16T02:03:06;9.40;99.90
19138;DHT22;68178;52.188;5.598;2023-05-16T02:05:32;9.50;99.90
19138;DHT22;68178;52.188;5.598;2023-05-16T02:07:58;9.40;99.90
19138;DHT22;68178;52.188;5.598;2023-05-16T02:10:24;9.50;99.90
19138;DHT22;68178;52.188;5.598;2023-05-16T02:12:51;9.70;99.90
19138;DHT22;68178;52.188;5.598;2023-05-16T02:15:16;9.70;99.90
19138;DHT22;68178;52.188;5.598;2023-05-16T02:17:42;9.70;99.90
19138;DHT22;68178;52.188;5.598;2023-05-16T02:20:08;9.90;99.90
19138;DHT22;68178;52.188;5.598;2023-05-16T02:22:35;9.90;99.90
19138;DHT22;68178;52.188;5.598;2023-05-16T02:25:02;9.90;99.90
19138;DHT22;68178;52.188;5.598;2023-05-16T02:27:28;9.90;99.90
19138;DHT22;68178;52.188;5.598;2023-05-16T02:29:57;9.80;99.90
19138;DHT22;68178;52.188;5.598;2023-05-16T02:32:22;9.90;99.90
19138;DHT22;68178;52.188;5.598;2023-05-16T02:34:48;9.80;99.90
19138;DHT22;68178;52.188;5.598;2023-05-16T02:37:13;9.90;99.90
19138;DHT22;68178;52.188;5.598;2023-05-16T02:39:39;9.90;99.90
19138;DHT22;68178;52.188;5.598;2023-05-16T02:42:05;9.80;99.90
19138;DHT22;68178;52.188;5.598;2023-05-16T02:44:31;9.80;99.90
19138;DHT22;68178;52.188;5.598;2023-05-16T02:46:57;9.80;99.90
19138;DHT22;68178;52.188;5.598;2023-05-16T02:49:22;9.70;99.90
19138;DHT22;68178;52.188;5.598;2023-05-16T02:51:48;9.70;99.90
19138;DHT22;68178;52.188;5.598;2023-05-16T02:54:14;9.70;99.90
19138;DHT22;68178;52.188;5.598;2023-05-16T02:56:39;9.60;99.90
19138;DHT22;68178;52.188;5.598;2023-05-16T02:59:05;9.60;99.90
19138;DHT22;68178;52.188;5.598;2023-05-16T03:01:31;9.60;99.90
19138;DHT22;68178;52.188;5.598;2023-05-16T03:03:56;9.50;99.90
19138;DHT22;68178;52.188;5.598;2023-05-16T03:06:22;9.40;99.90
19138;DHT22;68178;52.188;5.598;2023-05-16T03:08:47;9.40;99.90
19138;DHT22;68178;52.188;5.598;2023-05-16T03:11:13;9.40;99.90
19138;DHT22;68178;52.188;5.598;2023-05-16T03:13:39;9.50;99.90
19138;DHT22;68178;52.188;5.598;2023-05-16T03:16:06;9.50;99.90
19138;DHT22;68178;52.188;5.598;2023-05-16T03:18:31;9.30;99.90
19138;DHT22;68178;52.188;5.598;2023-05-16T03:20:57;9.40;99.90
19138;DHT22;68178;52.188;5.598;2023-05-16T03:23:24;9.40;99.90
19138;DHT22;68178;52.188;5.598;2023-05-16T03:25:50;9.30;99.90
19138;DHT22;68178;52.188;5.598;2023-05-16T03:28:16;9.20;99.90
19138;DHT22;68178;52.188;5.598;2023-05-16T03:30:42;9.10;99.90
19138;DHT22;68178;52.188;5.598;2023-05-16T03:33:08;9.10;99.90
19138;DHT22;68178;52.188;5.598;2023-05-16T03:35:34;9.00;99.90
19138;DHT22;68178;52.188;5.598;2023-05-16T03:38:00;9.00;99.90
19138;DHT22;68178;52.188;5.598;2023-05-16T03:40:26;8.90;99.90
19138;DHT22;68178;52.188;5.598;2023-05-16T03:42:52;8.90;99.90
19138;DHT22;68178;52.188;5.598;2023-05-16T03:45:18;8.80;99.90
19138;DHT22;68178;52.188;5.598;2023-05-16T03:47:43;8.90;99.90
19138;DHT22;68178;52.188;5.598;2023-05-16T03:50:09;8.90;99.90
19138;DHT22;68178;52.188;5.598;2023-05-16T03:52:35;8.90;99.90
19138;DHT22;68178;52.188;5.598;2023-05-16T03:55:01;9.00;99.90
19138;DHT22;68178;52.188;5.598;2023-05-16T03:57:30;9.00;99.90
19138;DHT22;68178;52.188;5.598;2023-05-16T03:59:56;9.00;99.90
19138;DHT22;68178;52.188;5.598;2023-05-16T04:02:25;9.10;99.90
19138;DHT22;68178;52.188;5.598;2023-05-16T04:04:50;9.10;99.90
19138;DHT22;68178;52.188;5.598;2023-05-16T04:07:19;9.10;99.90
19138;DHT22;68178;52.188;5.598;2023-05-16T04:09:44;9.10;99.90
19138;DHT22;68178;52.188;5.598;2023-05-16T04:12:10;9.00;99.90
19138;DHT22;68178;52.188;5.598;2023-05-16T04:14:36;8.90;99.90
19138;DHT22;68178;52.188;5.598;2023-05-16T04:17:02;9.00;99.90
19138;DHT22;68178;52.188;5.598;2023-05-16T04:19:28;9.10;99.90
19138;DHT22;68178;52.188;5.598;2023-05-16T04:21:53;9.00;99.90
19138;DHT22;68178;52.188;5.598;2023-05-16T04:24:19;8.90;99.90
19138;DHT22;68178;52.188;5.598;2023-05-16T04:26:45;8.80;99.90
19138;DHT22;68178;52.188;5.598;2023-05-16T04:29:17;8.80;99.90
19138;DHT22;68178;52.188;5.598;2023-05-16T04:31:42;8.80;99.90
19138;DHT22;68178;52.188;5.598;2023-05-16T04:34:08;8.70;99.90
19138;DHT22;68178;52.188;5.598;2023-05-16T04:36:33;8.70;99.90
19138;DHT22;68178;52.188;5.598;2023-05-16T04:39:00;8.80;99.90
19138;DHT22;68178;52.188;5.598;2023-05-16T04:41:25;8.90;99.90
19138;DHT22;68178;52.188;5.598;2023-05-16T04:43:51;8.90;99.90
19138;DHT22;68178;52.188;5.598;2023-05-16T04:46:17;9.10;99.90
19138;DHT22;68178;52.188;5.598;2023-05-16T04:48:43;9.20;99.90
19138;DHT22;68178;52.188;5.598;2023-05-16T04:51:09;9.30;99.90
19138;DHT22;68178;52.188;5.598;2023-05-16T04:53:34;9.20;99.90
19138;DHT22;68178;52.188;5.598;2023-05-16T04:56:00;9.40;99.90
19138;DHT22;68178;52.188;5.598;2023-05-16T04:58:26;9.50;99.90
19138;DHT22;68178;52.188;5.598;2023-05-16T05:00:51;9.60;99.90
19138;DHT22;68178;52.188;5.598;2023-05-16T05:03:17;9.50;99.90
19138;DHT22;68178;52.188;5.598;2023-05-16T05:05:43;9.30;99.90
19138;DHT22;68178;52.188;5.598;2023-05-16T05:08:08;9.40;99.90
19138;DHT22;68178;52.188;5.598;2023-05-16T05:10:34;9.40;99.90
19138;DHT22;68178;52.188;5.598;2023-05-16T05:13:00;9.50;99.90
19138;DHT22;68178;52.188;5.598;2023-05-16T05:15:26;9.50;99.90
19138;DHT22;68178;52.188;5.598;2023-05-16T05:17:51;9.60;99.90
19138;DHT22;68178;52.188;5.598;2023-05-16T05:20:17;9.60;99.90
19138;DHT22;68178;52.188;5.598;2023-05-16T05:22:43;9.80;99.90
19138;DHT22;68178;52.188;5.598;2023-05-16T05:25:08;9.80;99.90
19138;DHT22;68178;52.188;5.598;2023-05-16T05:27:34;10.10;99.90
19138;DHT22;68178;52.188;5.598;2023-05-16T05:30:00;10.00;99.90
19138;DHT22;68178;52.188;5.598;2023-05-16T05:32:26;10.20;99.90
19138;DHT22;68178;52.188;5.598;2023-05-16T05:34:52;10.30;99.90
19138;DHT22;68178;52.188;5.598;2023-05-16T05:37:18;10.60;99.90
19138;DHT22;68178;52.188;5.598;2023-05-16T05:39:44;10.80;99.90
19138;DHT22;68178;52.188;5.598;2023-05-16T05:42:09;11.10;99.90
19138;DHT22;68178;52.188;5.598;2023-05-16T05:44:36;11.20;99.90
19138;DHT22;68178;52.188;5.598;2023-05-16T05:47:02;11.40;99.90
19138;DHT22;68178;52.188;5.598;2023-05-16T05:49:28;11.50;99.90
19138;DHT22;68178;52.188;5.598;2023-05-16T05:51:54;11.60;99.90
19138;DHT22;68178;52.188;5.598;2023-05-16T05:54:19;11.70;99.90
19138;DHT22;68178;52.188;5.598;2023-05-16T05:56:45;11.70;99.90
19138;DHT22;68178;52.188;5.598;2023-05-16T05:59:11;11.90;99.90
19138;DHT22;68178;52.188;5.598;2023-05-16T06:01:37;11.90;99.90
19138;DHT22;68178;52.188;5.598;2023-05-16T06:04:02;12.20;99.90
19138;DHT22;68178;52.188;5.598;2023-05-16T06:06:28;12.40;99.90
19138;DHT22;68178;52.188;5.598;2023-05-16T06:08:54;12.40;99.90
19138;DHT22;68178;52.188;5.598;2023-05-16T06:11:19;12.60;99.90
19138;DHT22;68178;52.188;5.598;2023-05-16T06:13:48;12.80;99.90
19138;DHT22;68178;52.188;5.598;2023-05-16T06:16:14;12.70;99.90
19138;DHT22;68178;52.188;5.598;2023-05-16T06:18:39;12.80;99.90
19138;DHT22;68178;52.188;5.598;2023-05-16T06:21:05;13.00;99.90
19138;DHT22;68178;52.188;5.598;2023-05-16T06:23:31;13.10;99.90
19138;DHT22;68178;52.188;5.598;2023-05-16T06:25:57;13.40;99.90
19138;DHT22;68178;52.188;5.598;2023-05-16T06:28:22;13.50;99.90
19138;DHT22;68178;52.188;5.598;2023-05-16T06:30:48;13.60;99.90
19138;DHT22;68178;52.188;5.598;2023-05-16T06:33:16;13.70;99.90
19138;DHT22;68178;52.188;5.598;2023-05-16T06:35:42;13.80;99.90
19138;DHT22;68178;52.188;5.598;2023-05-16T06:38:08;13.90;99.90
19138;DHT22;68178;52.188;5.598;2023-05-16T06:40:33;13.90;99.90
19138;DHT22;68178;52.188;5.598;2023-05-16T06:42:59;14.20;99.90
19138;DHT22;68178;52.188;5.598;2023-05-16T06:45:25;14.40;99.90
19138;DHT22;68178;52.188;5.598;2023-05-16T06:47:50;14.60;99.90
19138;DHT22;68178;52.188;5.598;2023-05-16T06:50:16;14.70;99.90
19138;DHT22;68178;52.188;5.598;2023-05-16T06:52:42;14.80;99.90
19138;DHT22;68178;52.188;5.598;2023-05-16T06:55:08;14.80;99.90
19138;DHT22;68178;52.188;5.598;2023-05-16T06:57:33;15.10;99.90
19138;DHT22;68178;52.188;5.598;2023-05-16T06:59:59;15.30;99.90
19138;DHT22;68178;52.188;5.598;2023-05-16T07:02:24;15.30;99.90
19138;DHT22;68178;52.188;5.598;2023-05-16T07:04:50;15.20;99.90
19138;DHT22;68178;52.188;5.598;2023-05-16T07:07:16;15.20;99.90
19138;DHT22;68178;52.188;5.598;2023-05-16T07:09:41;14.90;99.90
19138;DHT22;68178;52.188;5.598;2023-05-16T07:12:08;14.70;99.90
19138;DHT22;68178;52.188;5.598;2023-05-16T07:14:33;14.80;99.90
19138;DHT22;68178;52.188;5.598;2023-05-16T07:16:59;14.80;99.90
19138;DHT22;68178;52.188;5.598;2023-05-16T07:19:25;14.50;99.90
19138;DHT22;68178;52.188;5.598;2023-05-16T07:21:50;14.20;99.90
19138;DHT22;68178;52.188;5.598;2023-05-16T07:24:16;13.90;99.90
19138;DHT22;68178;52.188;5.598;2023-05-16T07:26:42;13.80;99.90
19138;DHT22;68178;52.188;5.598;2023-05-16T07:29:07;13.90;99.90
19138;DHT22;68178;52.188;5.598;2023-05-16T07:31:33;14.00;99.90
19138;DHT22;68178;52.188;5.598;2023-05-16T07:33:59;14.20;99.90
19138;DHT22;68178;52.188;5.598;2023-05-16T07:36:25;14.00;99.90
19138;DHT22;68178;52.188;5.598;2023-05-16T07:38:50;13.70;99.90
19138;DHT22;68178;52.188;5.598;2023-05-16T07:41:16;13.90;99.90
19138;DHT22;68178;52.188;5.598;2023-05-16T07:43:41;14.30;99.90
19138;DHT22;68178;52.188;5.598;2023-05-16T07:46:07;14.20;99.90
19138;DHT22;68178;52.188;5.598;2023-05-16T07:48:32;14.00;99.90
19138;DHT22;68178;52.188;5.598;2023-05-16T07:50:58;13.60;99.90
19138;DHT22;68178;52.188;5.598;2023-05-16T07:53:23;13.20;99.90
19138;DHT22;68178;52.188;5.598;2023-05-16T07:55:49;12.80;99.90
19138;DHT22;68178;52.188;5.598;2023-05-16T07:58:15;12.50;99.90
19138;DHT22;68178;52.188;5.598;2023-05-16T08:00:40;12.40;99.90
19138;DHT22;68178;52.188;5.598;2023-05-16T08:03:06;12.30;99.90
19138;DHT22;68178;52.188;5.598;2023-05-16T08:05:32;12.20;99.90
19138;DHT22;68178;52.188;5.598;2023-05-16T08:07:57;12.40;99.90
19138;DHT22;68178;52.188;5.598;2023-05-16T08:10:23;12.50;99.90
19138;DHT22;68178;52.188;5.598;2023-05-16T08:12:48;12.70;99.90
19138;DHT22;68178;52.188;5.598;2023-05-16T08:15:14;13.00;99.90
19138;DHT22;68178;52.188;5.598;2023-05-16T08:17:40;13.30;99.90
19138;DHT22;68178;52.188;5.598;2023-05-16T08:20:06;13.40;99.90
19138;DHT22;68178;52.188;5.598;2023-05-16T08:22:32;13.80;99.90
19138;DHT22;68178;52.188;5.598;2023-05-16T08:24:58;14.50;99.90
19138;DHT22;68178;52.188;5.598;2023-05-16T08:27:26;15.00;99.90
19138;DHT22;68178;52.188;5.598;2023-05-16T08:29:52;15.30;99.90
19138;DHT22;68178;52.188;5.598;2023-05-16T08:32:17;15.40;99.90
19138;DHT22;68178;52.188;5.598;2023-05-16T08:34:43;15.70;99.90
19138;DHT22;68178;52.188;5.598;2023-05-16T08:37:08;16.00;99.90
19138;DHT22;68178;52.188;5.598;2023-05-16T08:39:35;16.20;99.90
19138;DHT22;68178;52.188;5.598;2023-05-16T08:42:02;16.60;99.90
19138;DHT22;68178;52.188;5.598;2023-05-16T08:44:29;17.00;99.90
19138;DHT22;68178;52.188;5.598;2023-05-16T08:46:56;17.60;99.90
19138;DHT22;68178;52.188;5.598;2023-05-16T08:49:22;17.50;99.90
19138;DHT22;68178;52.188;5.598;2023-05-16T08:51:48;16.60;99.90
19138;DHT22;68178;52.188;5.598;2023-05-16T08:54:15;16.20;99.90
19138;DHT22;68178;52.188;5.598;2023-05-16T08:56:42;16.00;99.90
19138;DHT22;68178;52.188;5.598;2023-05-16T08:59:09;16.40;99.90
19138;DHT22;68178;52.188;5.598;2023-05-16T09:01:42;16.60;99.90
19138;DHT22;68178;52.188;5.598;2023-05-16T09:04:08;16.90;99.90
19138;DHT22;68178;52.188;5.598;2023-05-16T09:06:37;17.20;99.90
19138;DHT22;68178;52.188;5.598;2023-05-16T09:09:03;17.70;99.90
19138;DHT22;68178;52.188;5.598;2023-05-16T09:11:32;17.90;99.90
19138;DHT22;68178;52.188;5.598;2023-05-16T09:13:57;18.30;99.90
19138;DHT22;68178;52.188;5.598;2023-05-16T09:16:23;17.60;99.90
19138;DHT22;68178;52.188;5.598;2023-05-16T09:18:57;17.20;99.90
19138;DHT22;68178;52.188;5.598;2023-05-16T09:21:29;16.80;99.90
19138;DHT22;68178;52.188;5.598;2023-05-16T09:24:01;16.80;99.90
19138;DHT22;68178;52.188;5.598;2023-05-16T09:26:27;17.10;99.90
19138;DHT22;68178;52.188;5.598;2023-05-16T09:28:53;17.60;99.90
19138;DHT22;68178;52.188;5.598;2023-05-16T09:33:46;17.00;99.90
19138;DHT22;68178;52.188;5.598;2023-05-16T09:36:14;16.80;99.90
19138;DHT22;68178;52.188;5.598;2023-05-16T09:38:40;16.80;99.90
19138;DHT22;68178;52.188;5.598;2023-05-16T09:41:05;16.90;99.90
19138;DHT22;68178;52.188;5.598;2023-05-16T09:43:31;17.40;99.90
19138;DHT22;68178;52.188;5.598;2023-05-16T09:45:58;17.60;99.90
19138;DHT22;68178;52.188;5.598;2023-05-16T09:48:25;18.00;99.90
19138;DHT22;68178;52.188;5.598;2023-05-16T09:50:53;18.30;99.90
19138;DHT22;68178;52.188;5.598;2023-05-16T09:53:26;18.30;99.90
19138;DHT22;68178;52.188;5.598;2023-05-16T09:56:13;18.30;99.90
19138;DHT22;68178;52.188;5.598;2023-05-16T09:58:41;18.30;99.90
19138;DHT22;68178;52.188;5.598;2023-05-16T10:01:08;18.10;99.90
19138;DHT22;68178;52.188;5.598;2023-05-16T10:03:36;18.30;99.90
19138;DHT22;68178;52.188;5.598;2023-05-16T10:06:03;18.50;99.90
19138;DHT22;68178;52.188;5.598;2023-05-16T10:08:31;18.50;99.90
19138;DHT22;68178;52.188;5.598;2023-05-16T10:11:01;18.60;99.90
19138;DHT22;68178;52.188;5.598;2023-05-16T10:13:29;18.40;99.90
19138;DHT22;68178;52.188;5.598;2023-05-16T10:15:56;18.50;99.90
19138;DHT22;68178;52.188;5.598;2023-05-16T10:18:27;18.50;99.90
19138;DHT22;68178;52.188;5.598;2023-05-16T10:20:54;18.00;99.90
19138;DHT22;68178;52.188;5.598;2023-05-16T10:23:22;17.70;99.90
19138;DHT22;68178;52.188;5.598;2023-05-16T10:25:50;17.40;99.90
19138;DHT22;68178;52.188;5.598;2023-05-16T10:28:16;17.30;99.90
19138;DHT22;68178;52.188;5.598;2023-05-16T10:30:43;17.00;99.90
19138;DHT22;68178;52.188;5.598;2023-05-16T10:33:13;16.80;99.90
19138;DHT22;68178;52.188;5.598;2023-05-16T10:35:40;16.60;99.90
19138;DHT22;68178;52.188;5.598;2023-05-16T10:38:07;17.00;99.90
19138;DHT22;68178;52.188;5.598;2023-05-16T10:40:34;17.40;99.90
19138;DHT22;68178;52.188;5.598;2023-05-16T10:43:02;17.40;99.90
19138;DHT22;68178;52.188;5.598;2023-05-16T10:45:28;17.80;99.90
19138;DHT22;68178;52.188;5.598;2023-05-16T10:48:02;18.00;99.90
19138;DHT22;68178;52.188;5.598;2023-05-16T10:50:39;18.50;99.90
19138;DHT22;68178;52.188;5.598;2023-05-16T10:53:18;18.20;99.90
19138;DHT22;68178;52.188;5.598;2023-05-16T10:56:07;17.60;99.90
19138;DHT22;68178;52.188;5.598;2023-05-16T11:01:33;17.90;99.90
19138;DHT22;68178;52.188;5.598;2023-05-16T11:04:03;17.50;99.90
19138;DHT22;68178;52.188;5.598;2023-05-16T11:14:24;16.50;99.90
19138;DHT22;68178;52.188;5.598;2023-05-16T11:16:56;16.40;99.90
19138;DHT22;68178;52.188;5.598;2023-05-16T11:19:41;16.60;99.90
19138;DHT22;68178;52.188;5.598;2023-05-16T11:25:08;16.70;99.90
19138;DHT22;68178;52.188;5.598;2023-05-16T11:27:44;16.60;99.90
19138;DHT22;68178;52.188;5.598;2023-05-16T11:30:15;16.20;99.90
19138;DHT22;68178;52.188;5.598;2023-05-16T11:32:43;16.00;99.90
19138;DHT22;68178;52.188;5.598;2023-05-16T11:35:11;16.00;99.90
19138;DHT22;68178;52.188;5.598;2023-05-16T11:37:37;15.70;99.90
19138;DHT22;68178;52.188;5.598;2023-05-16T11:40:07;15.60;99.90
19138;DHT22;68178;52.188;5.598;2023-05-16T11:42:36;15.50;99.90
19138;DHT22;68178;52.188;5.598;2023-05-16T11:45:24;15.20;99.90
19138;DHT22;68178;52.188;5.598;2023-05-16T11:47:50;15.10;99.90
19138;DHT22;68178;52.188;5.598;2023-05-16T11:50:18;15.10;99.90
19138;DHT22;68178;52.188;5.598;2023-05-16T11:52:49;15.20;99.90
19138;DHT22;68178;52.188;5.598;2023-05-16T11:55:20;14.90;99.90
19138;DHT22;68178;52.188;5.598;2023-05-16T11:57:46;14.90;99.90
19138;DHT22;68178;52.188;5.598;2023-05-16T12:00:17;15.00;99.90
19138;DHT22;68178;52.188;5.598;2023-05-16T12:02:47;14.80;99.90
19138;DHT22;68178;52.188;5.598;2023-05-16T12:05:14;14.50;99.90
19138;DHT22;68178;52.188;5.598;2023-05-16T12:07:41;14.60;99.90
19138;DHT22;68178;52.188;5.598;2023-05-16T12:10:08;14.80;99.90
19138;DHT22;68178;52.188;5.598;2023-05-16T12:12:35;14.80;99.90
19138;DHT22;68178;52.188;5.598;2023-05-16T12:15:04;14.70;99.90
19138;DHT22;68178;52.188;5.598;2023-05-16T12:17:37;14.50;99.90
19138;DHT22;68178;52.188;5.598;2023-05-16T12:20:04;14.40;99.90
19138;DHT22;68178;52.188;5.598;2023-05-16T12:22:40;14.50;99.90
19138;DHT22;68178;52.188;5.598;2023-05-16T12:25:28;14.30;99.90
19138;DHT22;68178;52.188;5.598;2023-05-16T12:27:56;14.30;99.90
19138;DHT22;68178;52.188;5.598;2023-05-16T12:30:24;14.10;99.90
19138;DHT22;68178;52.188;5.598;2023-05-16T12:32:57;14.00;99.90
19138;DHT22;68178;52.188;5.598;2023-05-16T12:35:31;13.80;99.90
19138;DHT22;68178;52.188;5.598;2023-05-16T12:37:58;13.80;99.90
19138;DHT22;68178;52.188;5.598;2023-05-16T12:40:27;14.00;99.90
19138;DHT22;68178;52.188;5.598;2023-05-16T12:42:53;14.20;99.90
19138;DHT22;68178;52.188;5.598;2023-05-16T12:45:20;14.50;99.90
19138;DHT22;68178;52.188;5.598;2023-05-16T12:47:46;15.00;99.90
19138;DHT22;68178;52.188;5.598;2023-05-16T12:50:13;15.30;99.90
19138;DHT22;68178;52.188;5.598;2023-05-16T12:55:20;15.40;99.90
19138;DHT22;68178;52.188;5.598;2023-05-16T12:57:47;15.50;99.90
19138;DHT22;68178;52.188;5.598;2023-05-16T13:00:14;15.40;99.90
19138;DHT22;68178;52.188;5.598;2023-05-16T13:02:40;15.80;99.90
19138;DHT22;68178;52.188;5.598;2023-05-16T13:05:07;16.40;99.90
19138;DHT22;68178;52.188;5.598;2023-05-16T13:07:33;16.00;99.90
19138;DHT22;68178;52.188;5.598;2023-05-16T13:09:59;15.90;99.90
19138;DHT22;68178;52.188;5.598;2023-05-16T13:12:24;15.60;99.90
19138;DHT22;68178;52.188;5.598;2023-05-16T13:15:00;15.20;99.90
19138;DHT22;68178;52.188;5.598;2023-05-16T13:17:25;15.10;99.90
19138;DHT22;68178;52.188;5.598;2023-05-16T13:19:51;15.10;99.90
19138;DHT22;68178;52.188;5.598;2023-05-16T13:22:17;15.20;99.90
19138;DHT22;68178;52.188;5.598;2023-05-16T13:24:42;15.20;99.90
19138;DHT22;68178;52.188;5.598;2023-05-16T13:27:08;14.90;99.90
19138;DHT22;68178;52.188;5.598;2023-05-16T13:29:33;14.70;99.90
19138;DHT22;68178;52.188;5.598;2023-05-16T13:31:59;14.80;99.90
19138;DHT22;68178;52.188;5.598;2023-05-16T13:34:24;14.70;99.90
19138;DHT22;68178;52.188;5.598;2023-05-16T13:36:50;14.60;99.90
19138;DHT22;68178;52.188;5.598;2023-05-16T13:39:16;14.70;99.90
19138;DHT22;68178;52.188;5.598;2023-05-16T13:41:42;14.70;99.90
19138;DHT22;68178;52.188;5.598;2023-05-16T13:44:07;14.80;99.90
19138;DHT22;68178;52.188;5.598;2023-05-16T13:46:33;14.70;99.90
19138;DHT22;68178;52.188;5.598;2023-05-16T13:48:59;15.10;99.90
19138;DHT22;68178;52.188;5.598;2023-05-16T13:51:25;15.40;99.90
19138;DHT22;68178;52.188;5.598;2023-05-16T13:53:50;15.40;99.90
19138;DHT22;68178;52.188;5.598;2023-05-16T13:56:16;15.30;99.90
19138;DHT22;68178;52.188;5.598;2023-05-16T13:58:42;15.30;99.90
19138;DHT22;68178;52.188;5.598;2023-05-16T14:01:07;15.30;99.90
19138;DHT22;68178;52.188;5.598;2023-05-16T14:03:33;16.70;99.90
19138;DHT22;68178;52.188;5.598;2023-05-16T14:06:01;18.40;99.90
19138;DHT22;68178;52.188;5.598;2023-05-16T14:08:26;19.00;99.90
19138;DHT22;68178;52.188;5.598;2023-05-16T14:10:52;18.80;99.90
19138;DHT22;68178;52.188;5.598;2023-05-16T14:13:17;18.40;99.90
19138;DHT22;68178;52.188;5.598;2023-05-16T14:15:43;18.20;99.90
19138;DHT22;68178;52.188;5.598;2023-05-16T14:18:08;17.90;99.90
19138;DHT22;68178;52.188;5.598;2023-05-16T14:20:34;17.50;99.90
19138;DHT22;68178;52.188;5.598;2023-05-16T14:23:00;17.10;99.90
19138;DHT22;68178;52.188;5.598;2023-05-16T14:25:25;16.60;99.90
19138;DHT22;68178;52.188;5.598;2023-05-16T14:27:51;16.20;99.90
19138;DHT22;68178;52.188;5.598;2023-05-16T14:30:16;16.00;99.90
19138;DHT22;68178;52.188;5.598;2023-05-16T14:32:42;15.80;99.90
19138;DHT22;68178;52.188;5.598;2023-05-16T14:35:08;15.60;99.90
19138;DHT22;68178;52.188;5.598;2023-05-16T14:37:36;15.50;99.90
19138;DHT22;68178;52.188;5.598;2023-05-16T14:40:02;15.50;99.90
19138;DHT22;68178;52.188;5.598;2023-05-16T14:42:29;15.40;99.90
19138;DHT22;68178;52.188;5.598;2023-05-16T14:44:55;15.30;99.90
19138;DHT22;68178;52.188;5.598;2023-05-16T14:47:21;15.30;99.90
19138;DHT22;68178;52.188;5.598;2023-05-16T14:49:46;15.50;99.90
19138;DHT22;68178;52.188;5.598;2023-05-16T14:52:12;15.50;99.90
19138;DHT22;68178;52.188;5.598;2023-05-16T14:54:38;15.40;99.90
19138;DHT22;68178;52.188;5.598;2023-05-16T14:57:06;15.20;99.90
19138;DHT22;68178;52.188;5.598;2023-05-16T14:59:32;15.30;99.90
19138;DHT22;68178;52.188;5.598;2023-05-16T15:01:58;15.20;99.90
19138;DHT22;68178;52.188;5.598;2023-05-16T15:04:25;15.40;99.90
19138;DHT22;68178;52.188;5.598;2023-05-16T15:06:51;15.40;99.90
19138;DHT22;68178;52.188;5.598;2023-05-16T15:09:16;15.50;99.90
19138;DHT22;68178;52.188;5.598;2023-05-16T15:11:43;15.50;99.90
19138;DHT22;68178;52.188;5.598;2023-05-16T15:14:09;15.50;99.90
19138;DHT22;68178;52.188;5.598;2023-05-16T15:16:35;15.70;99.90
19138;DHT22;68178;52.188;5.598;2023-05-16T15:19:00;15.60;99.90
19138;DHT22;68178;52.188;5.598;2023-05-16T15:21:26;15.70;99.90
19138;DHT22;68178;52.188;5.598;2023-05-16T15:23:52;15.40;99.90
19138;DHT22;68178;52.188;5.598;2023-05-16T15:26:17;15.30;99.90
19138;DHT22;68178;52.188;5.598;2023-05-16T15:28:43;15.10;99.90
19138;DHT22;68178;52.188;5.598;2023-05-16T15:31:08;15.10;99.90
19138;DHT22;68178;52.188;5.598;2023-05-16T15:33:34;15.30;99.90
19138;DHT22;68178;52.188;5.598;2023-05-16T15:36:00;15.20;99.90
19138;DHT22;68178;52.188;5.598;2023-05-16T15:38:25;15.20;99.90
19138;DHT22;68178;52.188;5.598;2023-05-16T15:40:51;15.20;99.90
19138;DHT22;68178;52.188;5.598;2023-05-16T15:43:17;15.10;99.90
19138;DHT22;68178;52.188;5.598;2023-05-16T15:45:42;14.90;99.90
19138;DHT22;68178;52.188;5.598;2023-05-16T15:48:08;15.00;99.90
19138;DHT22;68178;52.188;5.598;2023-05-16T15:50:34;15.00;99.90
19138;DHT22;68178;52.188;5.598;2023-05-16T15:52:59;15.00;99.90
19138;DHT22;68178;52.188;5.598;2023-05-16T15:55:25;14.90;99.90
19138;DHT22;68178;52.188;5.598;2023-05-16T15:57:51;14.90;99.90
19138;DHT22;68178;52.188;5.598;2023-05-16T16:00:16;14.90;99.90
19138;DHT22;68178;52.188;5.598;2023-05-16T16:02:42;15.00;99.90